Time;durP1;ratioP1;P1;durP2;ratioP2;P2;SDS_P1;SDS_P2;PMS_P1;PMS_P2;Temp;Humidity;BMP_temperature;BMP_pressure;BME280_temperature;BME280_humidity;BME280_pressure;Samples;Min_cycle;Max_cycle;Signal;HPM_P1;HPM_P2
2024/02/04 00:00:08;;;;;;;10.55;1.88;;;7.30;99.90;;;;;;5071761;28;20568;-55
2024/02/04 00:02:34;;;;;;;10.77;1.77;;;7.20;99.90;;;;;;5067873;28;20070;-54
2024/02/04 00:04:59;;;;;;;7.22;2.05;;;7.20;99.90;;;;;;5075670;28;20035;-55
2024/02/04 00:07:24;;;;;;;12.77;1.98;;;7.20;99.90;;;;;;5075167;28;20032;-54
2024/02/04 00:09:50;;;;;;;9.07;1.70;;;7.20;99.90;;;;;;5072274;28;20110;-54
2024/02/04 00:12:15;;;;;;;10.15;2.15;;;7.20;99.90;;;;;;5074884;28;20043;-53
2024/02/04 00:14:41;;;;;;;12.30;2.35;;;7.30;99.90;;;;;;5065881;28;20016;-54
2024/02/04 00:17:06;;;;;;;8.63;2.25;;;7.20;99.90;;;;;;5075732;28;20019;-54
2024/02/04 00:19:32;;;;;;;6.43;1.80;;;7.20;99.90;;;;;;5071888;28;20146;-55
2024/02/04 00:21:57;;;;;;;5.30;1.45;;;7.30;99.90;;;;;;5075303;28;20051;-54
2024/02/04 00:24:23;;;;;;;7.63;2.17;;;7.30;99.90;;;;;;5071087;28;20108;-55
2024/02/04 00:26:48;;;;;;;4.88;2.20;;;7.30;99.90;;;;;;5068036;28;20027;-52
2024/02/04 00:29:14;;;;;;;5.93;1.50;;;7.30;99.90;;;;;;5074013;28;20553;-53
2024/02/04 00:31:40;;;;;;;5.10;1.55;;;7.40;99.90;;;;;;5068447;28;20036;-52
2024/02/04 00:34:05;;;;;;;15.70;2.60;;;7.40;99.90;;;;;;5072677;28;20036;-54
2024/02/04 00:36:31;;;;;;;8.98;2.10;;;7.50;99.90;;;;;;5058723;28;20627;-54
2024/02/04 00:38:56;;;;;;;9.10;1.85;;;7.50;99.90;;;;;;5075690;28;20066;-53
2024/02/04 00:41:22;;;;;;;12.07;2.20;;;7.50;99.90;;;;;;5071131;28;20396;-54
2024/02/04 00:43:47;;;;;;;11.07;2.00;;;7.60;99.90;;;;;;5071992;28;20082;-54
2024/02/04 00:46:13;;;;;;;11.02;2.47;;;7.60;99.90;;;;;;5068721;28;20025;-55
2024/02/04 00:48:40;;;;;;;13.70;1.85;;;7.50;99.90;;;;;;5073521;28;20501;-53
2024/02/04 00:51:06;;;;;;;14.52;2.25;;;7.50;99.90;;;;;;5071317;28;20024;-54
2024/02/04 00:53:33;;;;;;;9.63;2.38;;;7.30;99.90;;;;;;5073926;28;20035;-53
2024/02/04 00:56:03;;;;;;;8.45;1.90;;;7.30;99.90;;;;;;5077045;28;20492;-54
2024/02/04 00:58:29;;;;;;;13.77;2.05;;;7.20;99.90;;;;;;5073302;28;20055;-53
2024/02/04 01:00:54;;;;;;;9.63;1.73;;;7.20;99.90;;;;;;5075124;28;20507;-61
2024/02/04 01:03:19;;;;;;;10.23;2.15;;;7.10;99.90;;;;;;5067066;28;20046;-59
2024/02/04 01:05:45;;;;;;;9.48;1.75;;;7.10;99.90;;;;;;5075257;28;20039;-60
2024/02/04 01:08:10;;;;;;;11.10;2.28;;;7.00;99.90;;;;;;5072181;28;20116;-59
2024/02/04 01:10:36;;;;;;;11.50;2.45;;;7.00;99.90;;;;;;5074118;28;20028;-59
2024/02/04 01:13:03;;;;;;;8.80;1.80;;;6.90;99.90;;;;;;5074747;28;20436;-59
2024/02/04 01:15:28;;;;;;;9.90;2.38;;;6.80;99.90;;;;;;5067888;28;20028;-60
2024/02/04 01:17:53;;;;;;;9.70;1.90;;;6.70;99.90;;;;;;5070596;28;20457;-59
2024/02/04 01:20:19;;;;;;;8.52;2.42;;;6.70;99.90;;;;;;5071446;28;20229;-60
2024/02/04 01:22:44;;;;;;;15.60;3.15;;;6.60;99.90;;;;;;5074715;28;20024;-59
2024/02/04 01:25:10;;;;;;;6.28;1.83;;;6.60;99.90;;;;;;5074903;28;20181;-58
2024/02/04 01:27:35;;;;;;;15.68;2.30;;;6.50;99.90;;;;;;5079202;28;20043;-60
2024/02/04 01:30:01;;;;;;;8.27;1.80;;;6.50;99.90;;;;;;5072015;28;20434;-59
2024/02/04 01:32:26;;;;;;;6.75;2.00;;;6.40;99.90;;;;;;5076835;28;20028;-59
2024/02/04 01:34:52;;;;;;;5.93;1.90;;;6.40;99.90;;;;;;5079424;28;20206;-59
2024/02/04 01:37:18;;;;;;;8.00;1.85;;;6.40;99.90;;;;;;5078204;28;20024;-59
2024/02/04 01:39:43;;;;;;;13.32;2.33;;;6.40;99.90;;;;;;5079157;28;20015;-58
2024/02/04 01:42:09;;;;;;;8.80;2.30;;;6.30;99.90;;;;;;5080651;28;20107;-59
2024/02/04 01:44:36;;;;;;;13.25;2.00;;;6.30;99.90;;;;;;5079251;28;20390;-59
2024/02/04 01:47:01;;;;;;;8.20;1.83;;;6.30;99.90;;;;;;5076772;28;20044;-59
2024/02/04 01:49:27;;;;;;;9.02;1.67;;;6.30;99.90;;;;;;5080649;28;20386;-59
2024/02/04 01:51:53;;;;;;;8.13;1.95;;;6.30;99.90;;;;;;5076585;28;20024;-58
2024/02/04 01:54:19;;;;;;;14.48;2.10;;;6.30;99.90;;;;;;5079011;28;20121;-58
2024/02/04 01:56:49;;;;;;;8.95;1.70;;;6.30;99.90;;;;;;5080882;28;20027;-58
2024/02/04 01:59:15;;;;;;;10.70;1.60;;;6.40;99.90;;;;;;5076986;28;20024;-59
2024/02/04 02:01:43;;;;;;;7.20;1.60;;;6.50;99.90;;;;;;5076134;28;20554;-59
2024/02/04 02:04:08;;;;;;;10.35;1.88;;;6.50;99.90;;;;;;5079302;28;20058;-59
2024/02/04 02:06:41;;;;;;;10.73;2.50;;;6.60;99.90;;;;;;5077760;28;20024;-59
2024/02/04 02:09:07;;;;;;;23.98;2.30;;;6.60;99.90;;;;;;5079277;28;20028;-59
2024/02/04 02:11:45;;;;;;;8.75;1.92;;;6.60;99.90;;;;;;5077930;28;20113;-62
2024/02/04 02:14:18;;;;;;;9.13;1.80;;;6.60;99.90;;;;;;5079346;28;20024;-61
2024/02/04 02:16:46;;;;;;;12.00;2.17;;;6.60;99.90;;;;;;5075968;28;20032;-61
2024/02/04 02:19:39;;;;;;;12.07;2.42;;;6.60;99.90;;;;;;5078803;28;20028;-62
2024/02/04 02:22:36;;;;;;;12.32;2.33;;;6.40;99.90;;;;;;5077332;28;20171;-62
2024/02/04 02:25:04;;;;;;;9.23;1.92;;;6.30;99.90;;;;;;5076510;28;20032;-61
2024/02/04 02:27:30;;;;;;;8.57;2.60;;;6.20;99.90;;;;;;5074301;28;20089;-62
2024/02/04 02:29:56;;;;;;;13.00;2.38;;;6.20;99.90;;;;;;5079191;28;20071;-61
2024/02/04 02:32:21;;;;;;;7.88;1.85;;;6.10;99.90;;;;;;5075467;28;20021;-62
2024/02/04 02:34:47;;;;;;;11.10;2.78;;;5.90;99.90;;;;;;5077745;28;20039;-61
2024/02/04 02:37:32;;;;;;;10.80;1.80;;;5.90;99.90;;;;;;5078398;28;20044;-62
2024/02/04 02:40:33;;;;;;;13.40;2.17;;;5.90;99.90;;;;;;5076897;28;20104;-61
2024/02/04 02:43:02;;;;;;;12.38;2.03;;;5.90;99.90;;;;;;5073241;28;20299;-61
2024/02/04 02:45:28;;;;;;;6.85;1.88;;;6.00;99.90;;;;;;5067459;28;20111;-61
2024/02/04 02:47:54;;;;;;;9.95;1.90;;;6.00;99.90;;;;;;5076227;28;20032;-62
2024/02/04 02:50:20;;;;;;;13.68;2.13;;;6.00;99.90;;;;;;5075946;28;20047;-61
2024/02/04 02:52:46;;;;;;;8.38;2.38;;;6.00;99.90;;;;;;5078274;28;20060;-61
2024/02/04 02:55:12;;;;;;;8.80;2.05;;;6.10;99.90;;;;;;5075615;28;20054;-62
2024/02/04 02:57:37;;;;;;;8.27;2.00;;;6.10;99.90;;;;;;5077443;28;20060;-61
2024/02/04 03:00:05;;;;;;;13.90;2.97;;;6.20;99.90;;;;;;5076091;28;20027;-61
2024/02/04 03:02:31;;;;;;;14.95;2.45;;;6.20;99.90;;;;;;5070958;28;20374;-62
2024/02/04 03:04:56;;;;;;;11.13;1.77;;;6.30;99.90;;;;;;5077706;28;20024;-62
2024/02/04 03:07:22;;;;;;;11.73;2.25;;;6.30;99.90;;;;;;5073657;28;20029;-62
2024/02/04 03:09:47;;;;;;;13.98;2.75;;;6.30;99.90;;;;;;5074120;28;20537;-62
2024/02/04 03:12:13;;;;;;;6.55;2.08;;;6.40;99.90;;;;;;5077483;28;20028;-62
2024/02/04 03:14:38;;;;;;;11.10;1.75;;;6.40;99.90;;;;;;5076706;28;20169;-61
2024/02/04 03:17:04;;;;;;;10.98;1.75;;;6.50;99.90;;;;;;5077903;28;20401;-61
2024/02/04 03:19:29;;;;;;;7.78;1.98;;;6.50;99.90;;;;;;5078925;28;20054;-62
2024/02/04 03:21:55;;;;;;;12.25;2.70;;;6.60;99.90;;;;;;5077549;28;20117;-62
2024/02/04 03:24:20;;;;;;;13.90;2.60;;;6.60;99.90;;;;;;5076949;28;20028;-62
2024/02/04 03:26:46;;;;;;;6.43;1.52;;;6.60;99.90;;;;;;5075919;28;20020;-62
2024/02/04 03:29:11;;;;;;;7.30;2.67;;;6.60;99.90;;;;;;5075857;28;20046;-62
2024/02/04 03:31:37;;;;;;;10.60;2.30;;;6.70;99.90;;;;;;5079141;28;20044;-63
2024/02/04 03:34:03;;;;;;;13.10;2.83;;;6.70;99.90;;;;;;5078691;28;20055;-63
2024/02/04 03:36:28;;;;;;;13.50;2.47;;;6.70;99.90;;;;;;5077618;28;20028;-62
2024/02/04 03:38:54;;;;;;;13.35;2.25;;;6.70;99.90;;;;;;5076398;28;20378;-62
2024/02/04 03:41:19;;;;;;;9.40;2.30;;;6.70;99.90;;;;;;5075528;28;20388;-62
2024/02/04 03:43:45;;;;;;;13.60;2.20;;;6.70;99.90;;;;;;5075513;28;20035;-62
2024/02/04 03:46:14;;;;;;;8.95;2.55;;;6.70;99.90;;;;;;5079376;28;20517;-62
2024/02/04 03:48:40;;;;;;;8.32;2.53;;;6.70;99.90;;;;;;5077515;28;20032;-62
2024/02/04 03:51:05;;;;;;;7.78;2.00;;;6.70;99.90;;;;;;5077928;28;20030;-62
2024/02/04 03:53:31;;;;;;;13.95;1.90;;;6.60;99.90;;;;;;5075175;28;20038;-62
2024/02/04 03:55:56;;;;;;;7.53;2.05;;;6.60;99.90;;;;;;5078276;28;20028;-62
2024/02/04 03:58:29;;;;;;;8.20;2.30;;;6.50;99.90;;;;;;5075306;28;20052;-62
2024/02/04 04:00:55;;;;;;;8.40;2.92;;;6.40;99.90;;;;;;5078248;28;20024;-62
2024/02/04 04:03:20;;;;;;;6.82;1.90;;;6.30;99.90;;;;;;5069896;28;20056;-61
2024/02/04 04:05:46;;;;;;;6.03;1.90;;;6.30;99.90;;;;;;5078184;28;20066;-61
2024/02/04 04:08:11;;;;;;;9.45;2.22;;;6.20;99.90;;;;;;5073576;28;20050;-62
2024/02/04 04:10:37;;;;;;;9.63;2.63;;;6.20;99.90;;;;;;5077515;28;20034;-62
2024/02/04 04:13:02;;;;;;;10.63;2.60;;;6.20;99.90;;;;;;5075208;28;20039;-62
2024/02/04 04:15:28;;;;;;;9.50;2.20;;;6.20;99.90;;;;;;5077386;28;20061;-62
2024/02/04 04:17:53;;;;;;;5.03;1.55;;;6.10;99.90;;;;;;5076662;28;20032;-61
2024/02/04 04:20:19;;;;;;;6.60;2.20;;;6.10;99.90;;;;;;5078799;28;20028;-62
2024/02/04 04:22:44;;;;;;;7.57;1.85;;;6.10;99.90;;;;;;5076699;28;20039;-62
2024/02/04 04:25:10;;;;;;;9.75;2.47;;;6.10;99.90;;;;;;5074520;28;20028;-62
2024/02/04 04:27:35;;;;;;;7.43;2.38;;;6.00;99.90;;;;;;5076655;28;20028;-62
2024/02/04 04:30:01;;;;;;;7.65;2.47;;;6.00;99.90;;;;;;5077042;28;20643;-63
2024/02/04 04:32:26;;;;;;;10.85;2.20;;;6.00;99.90;;;;;;5076537;28;20167;-62
2024/02/04 04:34:52;;;;;;;15.88;2.88;;;6.00;99.90;;;;;;5078690;28;20060;-62
2024/02/04 04:37:17;;;;;;;11.25;2.45;;;6.00;99.90;;;;;;5076765;28;20506;-63
2024/02/04 04:39:43;;;;;;;6.68;1.83;;;6.00;99.90;;;;;;5074191;28;20070;-62
2024/02/04 04:42:08;;;;;;;5.80;2.15;;;6.00;99.90;;;;;;5076472;28;20480;-62
2024/02/04 04:44:33;;;;;;;9.70;3.03;;;6.00;99.90;;;;;;5073595;28;20028;-62
2024/02/04 04:46:59;;;;;;;3.97;1.52;;;6.00;99.90;;;;;;5076730;28;20031;-62
2024/02/04 04:49:25;;;;;;;6.40;1.88;;;5.90;99.90;;;;;;5077975;28;20028;-62
2024/02/04 04:51:50;;;;;;;5.47;2.10;;;5.90;99.90;;;;;;5076595;28;20020;-62
2024/02/04 04:54:16;;;;;;;8.50;1.98;;;5.90;99.90;;;;;;5077261;28;20107;-62
2024/02/04 04:56:42;;;;;;;4.80;2.13;;;5.90;99.90;;;;;;5080583;28;20087;-62
2024/02/04 04:59:09;;;;;;;7.40;2.03;;;5.80;99.90;;;;;;5077078;28;20031;-63
2024/02/04 05:01:34;;;;;;;10.27;2.58;;;5.90;99.90;;;;;;5080446;28;20043;-61
2024/02/04 05:04:00;;;;;;;5.72;2.15;;;5.80;99.90;;;;;;5074327;28;20020;-61
2024/02/04 05:06:26;;;;;;;7.20;2.33;;;5.80;99.90;;;;;;5082518;28;20093;-62
2024/02/04 05:08:52;;;;;;;10.27;2.55;;;5.80;99.90;;;;;;5077097;28;20028;-62
2024/02/04 05:11:17;;;;;;;7.05;3.28;;;5.80;99.90;;;;;;5080835;28;20024;-62
2024/02/04 05:13:42;;;;;;;9.50;2.50;;;5.80;99.90;;;;;;5076607;28;20551;-62
2024/02/04 05:16:08;;;;;;;7.38;1.73;;;5.80;99.90;;;;;;5076843;28;20023;-62
2024/02/04 05:18:33;;;;;;;7.40;2.33;;;5.90;99.90;;;;;;5079334;28;20047;-62
2024/02/04 05:21:02;;;;;;;6.18;1.98;;;5.90;99.90;;;;;;5080058;28;20056;-62
2024/02/04 05:23:28;;;;;;;4.63;1.75;;;5.90;99.90;;;;;;5079543;28;20032;-61
2024/02/04 05:25:53;;;;;;;7.65;2.10;;;5.90;99.90;;;;;;5082928;28;20463;-62
2024/02/04 05:28:19;;;;;;;3.70;2.25;;;5.90;99.90;;;;;;5075728;28;20020;-62
2024/02/04 05:30:44;;;;;;;5.97;1.40;;;5.90;99.90;;;;;;5080317;28;20119;-62
2024/02/04 05:33:13;;;;;;;9.18;2.10;;;5.90;99.90;;;;;;5079677;28;20020;-62
2024/02/04 05:35:41;;;;;;;8.52;1.98;;;5.90;99.90;;;;;;5074257;28;20068;-61
2024/02/04 05:38:06;;;;;;;7.53;2.25;;;6.00;99.90;;;;;;5078054;28;20016;-63
2024/02/04 05:40:32;;;;;;;8.07;2.08;;;6.00;99.90;;;;;;5079204;28;20523;-63
2024/02/04 05:42:58;;;;;;;11.48;2.33;;;6.00;99.90;;;;;;5075819;28;20028;-62
2024/02/04 05:45:23;;;;;;;10.48;2.22;;;6.00;99.90;;;;;;5079679;28;20020;-62
2024/02/04 05:47:49;;;;;;;9.38;2.83;;;6.10;99.90;;;;;;5079438;28;20510;-62
2024/02/04 05:50:14;;;;;;;5.20;1.80;;;6.10;99.90;;;;;;5079366;28;20043;-63
2024/02/04 05:52:40;;;;;;;9.07;2.42;;;6.10;99.90;;;;;;5079600;28;20093;-62
2024/02/04 05:55:06;;;;;;;4.07;1.90;;;6.20;99.90;;;;;;5081604;28;20051;-62
2024/02/04 05:57:31;;;;;;;5.53;1.50;;;6.20;99.90;;;;;;5079597;28;20051;-63
2024/02/04 05:59:59;;;;;;;3.90;1.55;;;6.20;99.90;;;;;;5078545;28;20562;-62
2024/02/04 06:02:24;;;;;;;5.57;1.38;;;6.20;99.90;;;;;;5077644;28;20103;-62
2024/02/04 06:04:50;;;;;;;7.07;1.50;;;6.20;99.90;;;;;;5077541;28;20107;-62
2024/02/04 06:07:15;;;;;;;6.50;1.60;;;6.20;99.90;;;;;;5076698;28;20012;-63
2024/02/04 06:09:41;;;;;;;8.20;1.55;;;6.10;99.90;;;;;;5080404;28;20786;-62
2024/02/04 06:12:07;;;;;;;7.30;1.48;;;6.00;99.90;;;;;;5079358;28;20024;-62
2024/02/04 06:14:34;;;;;;;4.55;1.85;;;5.90;99.90;;;;;;5077775;28;20265;-62
2024/02/04 06:17:00;;;;;;;5.00;1.67;;;5.80;99.90;;;;;;5079010;28;20374;-62
2024/02/04 06:19:25;;;;;;;5.80;1.67;;;5.80;99.90;;;;;;5078484;28;20030;-62
2024/02/04 06:21:51;;;;;;;3.35;1.00;;;5.80;99.90;;;;;;5074986;28;20028;-63
2024/02/04 06:24:16;;;;;;;8.07;2.25;;;5.90;99.90;;;;;;5080336;28;20032;-63
2024/02/04 06:26:41;;;;;;;7.65;1.98;;;5.90;99.90;;;;;;5078246;28;20043;-62
2024/02/04 06:29:07;;;;;;;8.98;1.73;;;5.90;99.90;;;;;;5076548;28;20602;-62
2024/02/04 06:31:32;;;;;;;4.82;1.73;;;5.90;99.90;;;;;;5079460;28;20316;-62
2024/02/04 06:33:58;;;;;;;9.55;2.17;;;6.00;99.90;;;;;;5078978;28;20036;-62
2024/02/04 06:36:23;;;;;;;6.78;1.67;;;6.00;99.90;;;;;;5079086;28;20393;-62
2024/02/04 06:38:49;;;;;;;8.70;1.77;;;6.00;99.90;;;;;;5078469;28;20031;-61
2024/02/04 06:41:14;;;;;;;8.90;1.98;;;6.00;99.90;;;;;;5080659;28;20024;-63
2024/02/04 06:43:40;;;;;;;6.80;1.70;;;6.00;99.90;;;;;;5078143;28;20444;-61
2024/02/04 06:46:05;;;;;;;9.13;2.10;;;6.00;99.90;;;;;;5078748;28;20028;-62
2024/02/04 06:48:31;;;;;;;4.82;2.17;;;5.90;99.90;;;;;;5079149;28;20032;-62
2024/02/04 06:50:56;;;;;;;10.02;1.67;;;5.90;99.90;;;;;;5078711;28;20035;-62
2024/02/04 06:53:22;;;;;;;6.35;1.88;;;5.80;99.90;;;;;;5080595;28;20028;-62
2024/02/04 06:55:47;;;;;;;4.30;1.50;;;5.80;99.90;;;;;;5080356;28;20024;-62
2024/02/04 06:58:13;;;;;;;7.32;1.80;;;5.80;99.90;;;;;;5078586;28;20728;-62
2024/02/04 07:00:38;;;;;;;4.85;1.50;;;5.70;99.90;;;;;;5078671;28;20043;-61
2024/02/04 07:03:04;;;;;;;5.35;1.92;;;5.70;99.90;;;;;;5071110;28;20070;-54
2024/02/04 07:05:31;;;;;;;8.77;2.63;;;5.80;99.90;;;;;;5078736;28;20031;-59
2024/02/04 07:07:56;;;;;;;9.38;1.90;;;5.80;99.90;;;;;;5079119;28;20028;-55
2024/02/04 07:10:22;;;;;;;6.88;2.20;;;5.90;99.90;;;;;;5078299;28;20024;-56
2024/02/04 07:12:47;;;;;;;9.57;2.38;;;6.00;99.90;;;;;;5078520;28;20036;-55
2024/02/04 07:15:13;;;;;;;7.40;1.77;;;6.10;99.90;;;;;;5078424;28;20027;-54
2024/02/04 07:17:38;;;;;;;8.35;2.47;;;6.10;99.90;;;;;;5078239;28;20028;-53
2024/02/04 07:20:05;;;;;;;11.60;3.08;;;6.20;99.90;;;;;;5077586;28;20013;-54
2024/02/04 07:22:31;;;;;;;9.52;2.55;;;6.30;99.90;;;;;;5080053;28;20115;-56
2024/02/04 07:24:56;;;;;;;9.13;2.80;;;6.40;99.90;;;;;;5077755;28;20119;-56
2024/02/04 07:27:22;;;;;;;10.55;3.42;;;6.50;99.90;;;;;;5077895;28;20918;-51
2024/02/04 07:29:47;;;;;;;8.90;3.10;;;6.60;99.90;;;;;;5079347;28;20089;-56
2024/02/04 07:32:14;;;;;;;8.65;2.63;;;6.70;99.90;;;;;;5077632;28;20027;-56
2024/02/04 07:34:40;;;;;;;10.02;3.95;;;6.80;99.90;;;;;;5077665;28;20511;-54
2024/02/04 07:37:05;;;;;;;7.32;3.13;;;6.80;99.90;;;;;;5077977;28;20059;-51
2024/02/04 07:39:31;;;;;;;6.28;2.72;;;6.90;99.90;;;;;;5079294;28;20659;-55
2024/02/04 07:42:00;;;;;;;8.18;2.75;;;6.90;99.90;;;;;;5076174;28;20131;-54
2024/02/04 07:44:29;;;;;;;10.20;3.92;;;6.90;99.90;;;;;;5077773;28;20028;-56
2024/02/04 07:46:55;;;;;;;4.20;3.00;;;6.90;99.90;;;;;;5077614;28;20032;-57
2024/02/04 07:49:20;;;;;;;8.48;3.47;;;6.90;99.90;;;;;;5077347;28;20489;-52
2024/02/04 07:51:46;;;;;;;6.97;3.28;;;6.90;99.90;;;;;;5077153;28;20028;-50
2024/02/04 07:54:11;;;;;;;7.32;3.08;;;7.00;99.90;;;;;;5077461;28;20332;-54
2024/02/04 07:56:37;;;;;;;14.35;3.80;;;7.00;99.90;;;;;;5077842;28;20525;-50
2024/02/04 07:59:03;;;;;;;13.70;3.65;;;7.00;99.90;;;;;;5077157;28;20474;-53
2024/02/04 08:01:29;;;;;;;16.92;3.55;;;7.00;99.90;;;;;;5071246;28;20035;-52
2024/02/04 08:03:55;;;;;;;12.77;4.95;;;7.00;99.90;;;;;;5077191;28;20111;-53
2024/02/04 08:06:20;;;;;;;9.82;3.75;;;7.10;99.90;;;;;;5077081;28;20135;-54
2024/02/04 08:08:47;;;;;;;8.85;3.40;;;7.10;99.90;;;;;;5075739;28;20028;-53
2024/02/04 08:11:19;;;;;;;10.63;3.20;;;7.20;99.90;;;;;;5076944;28;20047;-50
2024/02/04 08:13:45;;;;;;;11.30;3.33;;;7.20;99.90;;;;;;5076983;28;20024;-52
2024/02/04 08:16:11;;;;;;;6.47;3.45;;;7.30;99.90;;;;;;5078956;28;20020;-52
2024/02/04 08:18:37;;;;;;;9.20;3.63;;;7.30;99.90;;;;;;5076845;28;20043;-52
2024/02/04 08:21:03;;;;;;;12.40;3.53;;;7.30;99.90;;;;;;5077073;28;20317;-52
2024/02/04 08:23:29;;;;;;;11.30;3.80;;;7.40;99.90;;;;;;5077049;28;20020;-50
2024/02/04 08:25:54;;;;;;;11.00;3.70;;;7.50;99.90;;;;;;5076667;28;20036;-52
2024/02/04 08:28:20;;;;;;;8.68;3.10;;;7.60;99.90;;;;;;5076824;28;20200;-53
2024/02/04 08:30:45;;;;;;;13.13;3.63;;;7.60;99.90;;;;;;5078712;28;20233;-50
2024/02/04 08:33:11;;;;;;;12.52;4.00;;;7.70;99.90;;;;;;5072546;28;20020;-53
2024/02/04 08:35:37;;;;;;;8.02;3.40;;;7.80;99.90;;;;;;5076658;28;20036;-53
2024/02/04 08:38:02;;;;;;;7.30;3.72;;;7.80;99.90;;;;;;5076903;28;20030;-52
2024/02/04 08:40:28;;;;;;;9.70;3.45;;;7.90;99.90;;;;;;5076565;28;20031;-51
2024/02/04 08:42:53;;;;;;;10.45;4.28;;;8.00;99.90;;;;;;5076682;28;20024;-51
2024/02/04 08:45:19;;;;;;;13.77;3.88;;;8.00;99.90;;;;;;5078622;28;20051;-53
2024/02/04 08:47:44;;;;;;;8.13;3.00;;;8.00;99.90;;;;;;5072582;28;20477;-50
2024/02/04 08:50:12;;;;;;;9.65;2.95;;;8.00;99.90;;;;;;5076390;28;20081;-51
2024/02/04 08:52:37;;;;;;;10.10;3.13;;;8.10;99.90;;;;;;5076198;28;20075;-54
2024/02/04 08:55:03;;;;;;;8.75;3.58;;;8.20;99.90;;;;;;5076800;28;20405;-54
2024/02/04 08:57:29;;;;;;;10.00;3.47;;;8.20;99.90;;;;;;5076476;28;20103;-54
2024/02/04 08:59:55;;;;;;;7.05;3.13;;;8.20;99.90;;;;;;5078618;28;20534;-51
2024/02/04 09:02:20;;;;;;;7.75;3.25;;;8.20;99.90;;;;;;5073085;28;20052;-55
2024/02/04 09:04:46;;;;;;;8.07;2.58;;;8.30;99.90;;;;;;5076504;28;20040;-53
2024/02/04 09:07:12;;;;;;;7.88;2.63;;;8.30;99.90;;;;;;5072366;28;20039;-53
2024/02/04 09:09:37;;;;;;;7.13;2.67;;;8.30;99.90;;;;;;5076467;28;20407;-51
2024/02/04 09:12:03;;;;;;;8.48;2.50;;;8.40;99.90;;;;;;5078301;28;20404;-53
2024/02/04 09:14:29;;;;;;;12.23;2.47;;;8.40;99.90;;;;;;5072887;28;20103;-54
2024/02/04 09:16:54;;;;;;;6.53;2.17;;;8.40;99.90;;;;;;5076446;28;20031;-52
2024/02/04 09:19:19;;;;;;;8.10;2.58;;;8.50;99.90;;;;;;5076414;28;20024;-54
2024/02/04 09:21:45;;;;;;;7.57;2.45;;;8.50;99.20;;;;;;5076230;28;20074;-54
2024/02/04 09:24:11;;;;;;;7.55;2.63;;;8.50;98.80;;;;;;5076363;28;20505;-54
2024/02/04 09:26:36;;;;;;;7.57;2.42;;;8.50;98.90;;;;;;5072212;28;20040;-52
2024/02/04 09:29:02;;;;;;;8.52;1.92;;;8.50;98.60;;;;;;5077981;28;20157;-51
2024/02/04 09:31:28;;;;;;;14.43;2.35;;;8.60;98.20;;;;;;5076222;28;20314;-52
2024/02/04 09:33:53;;;;;;;7.45;2.50;;;8.60;97.80;;;;;;5071968;28;20021;-51
2024/02/04 09:36:19;;;;;;;10.68;2.42;;;8.70;98.60;;;;;;5076014;28;20365;-53
2024/02/04 09:38:44;;;;;;;8.30;2.08;;;8.60;97.60;;;;;;5076393;28;20278;-51
2024/02/04 09:41:10;;;;;;;10.82;3.50;;;8.60;96.80;;;;;;5078911;28;20028;-54
2024/02/04 09:43:37;;;;;;;11.95;2.83;;;8.60;96.90;;;;;;5081937;28;20024;-52
2024/02/04 09:46:04;;;;;;;11.13;2.80;;;8.50;96.50;;;;;;5076040;28;20615;-53
2024/02/04 09:48:32;;;;;;;5.63;2.20;;;8.60;96.60;;;;;;5079414;28;20031;-51
2024/02/04 09:50:57;;;;;;;9.80;2.30;;;8.60;96.10;;;;;;5079507;28;20727;-48
2024/02/04 09:53:32;;;;;;;6.65;2.05;;;8.50;96.40;;;;;;5079736;28;20055;-55
2024/02/04 09:55:59;;;;;;;13.15;3.03;;;8.50;96.00;;;;;;5079583;28;20027;-50
2024/02/04 09:58:24;;;;;;;10.02;2.10;;;8.50;95.70;;;;;;5079414;28;20020;-52
2024/02/04 10:00:51;;;;;;;11.60;2.50;;;8.50;96.50;;;;;;5079154;28;20033;-50
2024/02/04 10:03:16;;;;;;;10.02;2.22;;;8.60;96.20;;;;;;5076245;28;20303;-54
2024/02/04 10:05:42;;;;;;;7.45;1.70;;;8.60;95.40;;;;;;5081285;28;20483;-53
2024/02/04 10:08:07;;;;;;;7.63;2.50;;;8.70;95.50;;;;;;5079360;28;20505;-53
2024/02/04 10:10:33;;;;;;;8.13;1.90;;;8.70;95.40;;;;;;5079442;28;20028;-53
2024/02/04 10:12:58;;;;;;;7.57;2.03;;;8.70;94.90;;;;;;5079347;28;20286;-59
2024/02/04 10:15:29;;;;;;;8.48;2.05;;;8.80;94.80;;;;;;5079424;28;20052;-59
2024/02/04 10:17:55;;;;;;;8.15;1.90;;;8.80;94.70;;;;;;5079232;28;20097;-60
2024/02/04 10:20:20;;;;;;;7.07;2.08;;;8.70;94.30;;;;;;5078954;28;20165;-60
2024/02/04 10:22:46;;;;;;;6.03;1.90;;;8.80;93.90;;;;;;5080961;28;20497;-60
2024/02/04 10:25:12;;;;;;;13.15;3.05;;;8.70;93.90;;;;;;5079094;28;20027;-60
2024/02/04 10:27:37;;;;;;;5.18;1.98;;;8.70;93.40;;;;;;5078998;28;20150;-60
2024/02/04 10:30:04;;;;;;;6.38;1.38;;;8.70;93.70;;;;;;5075075;28;20406;-60
2024/02/04 10:32:31;;;;;;;7.65;1.40;;;8.70;93.90;;;;;;5078905;28;20031;-60
2024/02/04 10:34:59;;;;;;;5.95;1.75;;;8.80;93.70;;;;;;5078769;28;20035;-59
2024/02/04 10:37:24;;;;;;;7.85;1.90;;;8.80;93.70;;;;;;5078809;28;20129;-60
2024/02/04 10:39:50;;;;;;;8.68;1.55;;;8.80;93.10;;;;;;5078715;28;20032;-60
2024/02/04 10:42:22;;;;;;;7.97;1.85;;;8.90;93.00;;;;;;5080604;28;20036;-60
2024/02/04 10:44:51;;;;;;;7.45;2.03;;;9.10;92.60;;;;;;5076226;28;20061;-60
2024/02/04 10:47:23;;;;;;;13.77;1.85;;;9.10;91.50;;;;;;5078688;28;20024;-60
2024/02/04 10:49:56;;;;;;;4.93;1.30;;;9.20;91.10;;;;;;5080498;28;20020;-60
2024/02/04 10:52:25;;;;;;;4.35;1.52;;;9.30;90.80;;;;;;5076125;28;20035;-60
2024/02/04 10:54:52;;;;;;;4.72;1.73;;;9.30;90.70;;;;;;5076689;28;20021;-60
2024/02/04 10:57:22;;;;;;;6.80;1.30;;;9.40;90.60;;;;;;5080357;28;20016;-60
2024/02/04 10:59:48;;;;;;;5.25;1.55;;;9.50;89.60;;;;;;5076285;28;20238;-60
2024/02/04 11:02:15;;;;;;;5.88;1.52;;;9.50;89.80;;;;;;5071884;28;20301;-60
2024/02/04 11:04:42;;;;;;;3.70;1.35;;;9.50;90.00;;;;;;5078452;28;20039;-59
2024/02/04 11:07:09;;;;;;;7.03;1.38;;;9.50;90.50;;;;;;5078124;28;20107;-60
2024/02/04 11:09:36;;;;;;;7.53;1.48;;;9.50;89.20;;;;;;5077047;28;20528;-59
2024/02/04 11:12:06;;;;;;;7.53;1.45;;;9.40;88.40;;;;;;5078156;28;20512;-59
2024/02/04 11:14:33;;;;;;;10.93;1.50;;;9.50;88.80;;;;;;5078361;28;20550;-59
2024/02/04 11:17:08;;;;;;;6.55;1.90;;;9.40;89.70;;;;;;5078151;28;20092;-59
2024/02/04 11:20:03;;;;;;;4.43;1.40;;;9.30;87.90;;;;;;5078029;28;20304;-59
2024/02/04 11:22:43;;;;;;;4.03;0.95;;;9.20;87.00;;;;;;5079739;28;20028;-60
2024/02/04 11:25:38;;;;;;;4.70;1.77;;;9.20;88.10;;;;;;5075243;28;20032;-59
2024/02/04 11:28:04;;;;;;;3.35;1.17;;;9.20;87.90;;;;;;5074504;28;20024;-59
2024/02/04 11:30:34;;;;;;;5.25;1.63;;;9.20;87.70;;;;;;5079511;28;20058;-60
2024/02/04 11:33:06;;;;;;;9.45;1.38;;;9.10;86.10;;;;;;5075749;28;20020;-60
2024/02/04 11:35:36;;;;;;;6.85;1.45;;;9.00;86.90;;;;;;5079646;28;20028;-60
2024/02/04 11:38:03;;;;;;;4.72;1.48;;;9.00;85.90;;;;;;5075777;28;20024;-60
2024/02/04 11:40:36;;;;;;;6.95;1.63;;;8.90;85.50;;;;;;5077812;28;20040;-60
2024/02/04 11:43:06;;;;;;;7.35;1.63;;;8.90;85.30;;;;;;5077895;28;20090;-60
2024/02/04 11:45:32;;;;;;;5.50;1.58;;;8.90;85.40;;;;;;5077600;28;20035;-60
2024/02/04 11:48:02;;;;;;;11.88;1.80;;;8.90;85.60;;;;;;5077591;28;22519;-60
2024/02/04 11:50:31;;;;;;;4.85;1.40;;;8.90;86.30;;;;;;5078033;28;21065;-60
2024/02/04 11:53:13;;;;;;;4.63;1.42;;;8.90;86.60;;;;;;5077176;28;20123;-60
2024/02/04 11:55:40;;;;;;;2.78;1.08;;;8.90;85.90;;;;;;5074164;28;20052;-57
2024/02/04 11:58:06;;;;;;;4.65;1.83;;;8.80;86.30;;;;;;5078998;28;20020;-60
2024/02/04 12:00:33;;;;;;;4.70;1.30;;;8.80;86.80;;;;;;5077574;28;20032;-60
2024/02/04 12:03:03;;;;;;;3.83;1.30;;;8.80;86.10;;;;;;5073241;28;20047;-60
2024/02/04 12:05:32;;;;;;;3.85;1.33;;;8.80;86.70;;;;;;5073015;28;20032;-60
2024/02/04 12:07:59;;;;;;;3.22;1.38;;;8.90;86.10;;;;;;5077042;28;20607;-60
2024/02/04 12:10:26;;;;;;;3.05;1.10;;;8.90;86.10;;;;;;5076937;28;20020;-63
2024/02/04 12:12:52;;;;;;;6.88;1.13;;;8.90;86.10;;;;;;5076964;28;20630;-60
2024/02/04 12:15:17;;;;;;;4.50;1.35;;;8.90;85.60;;;;;;5078955;28;20248;-60
2024/02/04 12:17:43;;;;;;;4.38;1.27;;;8.80;86.40;;;;;;5076737;28;20044;-60
2024/02/04 12:20:10;;;;;;;6.57;1.58;;;8.90;85.40;;;;;;5075029;28;20071;-60
2024/02/04 12:22:36;;;;;;;4.75;1.95;;;8.90;85.00;;;;;;5077208;28;20497;-60
2024/02/04 12:25:03;;;;;;;6.88;1.65;;;8.80;85.20;;;;;;5076656;28;20023;-60
2024/02/04 12:27:28;;;;;;;4.57;1.58;;;8.90;84.50;;;;;;5076851;28;20017;-60
2024/02/04 12:29:54;;;;;;;6.82;1.45;;;8.80;84.10;;;;;;5076677;28;20390;-60
2024/02/04 12:32:21;;;;;;;4.10;1.52;;;8.80;84.30;;;;;;5075585;28;20040;-61
2024/02/04 12:34:47;;;;;;;9.10;2.22;;;8.80;84.50;;;;;;5078778;28;20370;-60
2024/02/04 12:37:13;;;;;;;8.63;1.88;;;8.70;83.30;;;;;;5077194;28;20926;-62
2024/02/04 12:39:38;;;;;;;6.00;2.17;;;8.70;84.50;;;;;;5075495;28;20395;-62
2024/02/04 12:42:05;;;;;;;3.53;1.35;;;8.70;84.30;;;;;;5076909;28;20026;-62
2024/02/04 12:44:30;;;;;;;6.30;1.52;;;8.70;84.50;;;;;;5076821;28;20444;-60
2024/02/04 12:46:56;;;;;;;7.38;1.35;;;8.70;83.90;;;;;;5072020;28;20032;-60
2024/02/04 12:49:22;;;;;;;6.72;1.52;;;8.70;83.70;;;;;;5078869;28;20503;-60
2024/02/04 12:51:48;;;;;;;5.40;1.63;;;8.70;83.60;;;;;;5076215;28;20204;-60